»·PEaware :: N16RD KCRQ-KSNA

N16RD :: KCRQ-KSNA

FLIGHT INFORMATION

Flight Status: Arrived
Operator: Privately registered:
United States
More flights under this callsign
Pilot: Brett B. (12105)
Aircraft: CESSNA 172 SKYHAWK
(C172)
More flights by this aircraft type
Origin: KCRQ McClellan-Palomar
United States
Destination: KSNA John Wayne-Orange Co
United States
More flights between these airports :: More routes between these airports
Route: OCN V23 SLI
File this flight plan on PilotEdge
Remarks:
Altitude:
(Current/Filed)
4,000ft
Speed:
(Current/Filed)
115kts
Departed: 30-Oct-17 08:52 PM
Arrived: 30-Oct-17 09:40 PM
Distance/Time
Traveled:
44nm/0:48
Distance/Time
To Go:
Arrived

Flight Plot

Page will automatically refresh every two minutes.


Map Options




Map Legend


Flown Route
Filed Route
Departure Airport
Arrival Airport
Navaid (VOR, NDB)
Fix

Horizontal Profiles

Position Reports

Time Latitude Longitude Heading Altitude Ground
Speed
30-Oct-17 20:46 33.128055 -117.273218 168 303ft 0kts
30-Oct-17 20:47 33.128055 -117.273218 168 303ft 0kts
30-Oct-17 20:48 33.128055 -117.273218 168 303ft 0kts
30-Oct-17 20:49 33.128055 -117.273218 168 303ft 0kts
30-Oct-17 20:50 33.128055 -117.273218 168 303ft 0kts
30-Oct-17 20:51 33.128055 -117.273218 168 303ft 0kts
30-Oct-17 20:52 33.128055 -117.273218 168 303ft 0kts
30-Oct-17 20:53 33.128055 -117.273218 168 303ft 0kts
30-Oct-17 20:54 33.128174 -117.273150 334 303ft 5kts
30-Oct-17 20:55 33.128870 -117.272658 26 303ft 10kts
30-Oct-17 20:56 33.129325 -117.273290 261 303ft 3kts
30-Oct-17 20:57 33.124671 -117.292690 249 624ft 81kts
30-Oct-17 20:58 33.121124 -117.322262 261 1352ft 94kts
30-Oct-17 20:59 33.118035 -117.351968 262 2015ft 94kts
30-Oct-17 21:00 33.124986 -117.375589 4 2720ft 95kts
30-Oct-17 21:01 33.151497 -117.374982 355 3437ft 94kts
30-Oct-17 21:02 33.177508 -117.377398 349 4116ft 92kts
30-Oct-17 21:03 33.202052 -117.383411 341 4808ft 88kts
30-Oct-17 21:04 33.223238 -117.395839 313 5491ft 82kts
30-Oct-17 21:05 33.239050 -117.415690 311 6032ft 91kts
30-Oct-17 21:06 33.260148 -117.440429 314 6000ft 111kts
30-Oct-17 21:07 33.281738 -117.465566 313 5998ft 106kts
30-Oct-17 21:08 33.302825 -117.490142 313 6000ft 106kts
30-Oct-17 21:09 33.323951 -117.514782 314 6000ft 106kts
30-Oct-17 21:10 33.345215 -117.539594 314 6000ft 106kts
30-Oct-17 21:11 33.366636 -117.564610 314 6001ft 108kts
30-Oct-17 21:12 33.388312 -117.589941 314 6000ft 109kts
30-Oct-17 21:13 33.410003 -117.615309 314 6002ft 108kts
30-Oct-17 21:14 33.431652 -117.640648 314 6002ft 109kts
30-Oct-17 21:15 33.449783 -117.661883 314 6002ft 109kts
30-Oct-17 21:16 33.471443 -117.687269 314 6002ft 109kts
30-Oct-17 21:17 33.496685 -117.716876 314 6000ft 109kts
30-Oct-17 21:18 33.514778 -117.738118 315 5999ft 109kts
30-Oct-17 21:19 33.536512 -117.763644 315 5999ft 109kts
30-Oct-17 21:20 33.558363 -117.789330 315 5999ft 109kts
30-Oct-17 21:21 33.580139 -117.814945 315 5998ft 109kts
30-Oct-17 21:22 33.601906 -117.840570 315 5998ft 110kts
30-Oct-17 21:23 33.624305 -117.866959 315 5998ft 114kts
30-Oct-17 21:24 33.647929 -117.894820 315 5606ft 126kts
30-Oct-17 21:25 33.673482 -117.924985 314 4913ft 130kts
30-Oct-17 21:26 33.707638 -117.926223 12 4234ft 132kts
30-Oct-17 21:27 33.743824 -117.916364 12 3536ft 134kts
30-Oct-17 21:28 33.779990 -117.906388 17 2989ft 128kts
30-Oct-17 21:29 33.808780 -117.885862 32 2988ft 117kts
30-Oct-17 21:30 33.836448 -117.865262 32 2983ft 117kts
30-Oct-17 21:31 33.864230 -117.844564 32 2983ft 117kts
30-Oct-17 21:32 33.891804 -117.824014 32 2989ft 116kts
30-Oct-17 21:33 33.907375 -117.796797 111 3008ft 109kts
30-Oct-17 21:34 33.897176 -117.761773 112 2989ft 111kts
30-Oct-17 21:35 33.876165 -117.744734 182 2997ft 105kts
30-Oct-17 21:36 33.850013 -117.758800 212 2893ft 110kts
30-Oct-17 21:37 33.825057 -117.778482 213 2796ft 102kts
30-Oct-17 21:38 33.801606 -117.796247 194 2722ft 106kts
30-Oct-17 21:39 33.775224 -117.805097 198 2708ft 82kts
30-Oct-17 21:40 33.755531 -117.818514 215 1959ft 75kts
30-Oct-17 21:41 33.737547 -117.830528 200 1264ft 73kts
30-Oct-17 21:42 33.720143 -117.841095 209 996ft 67kts
30-Oct-17 21:43 33.703691 -117.851360 205 731ft 66kts
30-Oct-17 21:44 33.687080 -117.861682 206 221ft 67kts
30-Oct-17 21:45 33.677932 -117.868096 294 59ft 8kts
30-Oct-17 21:46 33.677747 -117.869103 206 59ft 13kts
30-Oct-17 21:47 33.677404 -117.869695 25 59ft 5kts
30-Oct-17 21:48 33.679539 -117.869066 17 59ft 9kts
30-Oct-17 21:49 33.681323 -117.867405 26 59ft 0kts
30-Oct-17 21:50 33.681323 -117.867405 26 59ft 0kts
30-Oct-17 21:51 33.681324 -117.867405 26 59ft 0kts
30-Oct-17 21:52 33.681324 -117.867405 26 59ft 0kts
30-Oct-17 21:53 33.681324 -117.867404 26 59ft 0kts
30-Oct-17 21:54 33.681324 -117.867404 26 59ft 0kts
30-Oct-17 21:55 33.681324 -117.867404 26 59ft 0kts
30-Oct-17 21:56 33.681324 -117.867404 26 59ft 0kts
30-Oct-17 21:57 33.681324 -117.867404 26 59ft 0kts
30-Oct-17 21:58 33.681324 -117.867404 26 59ft 0kts
30-Oct-17 21:59 33.681324 -117.867404 26 59ft 0kts

Navigation Log

Ident Type
Flight plan parsing failed, navigation log unavailable